createdAt,value
2023-02-27T00:00:42.393Z,7
2023-02-27T00:01:42.401Z,4
2023-02-27T00:02:42.412Z,7
2023-02-27T00:03:42.930Z,7
2023-02-27T00:04:42.425Z,8
2023-02-27T00:05:42.386Z,7
2023-02-27T00:06:42.388Z,5
2023-02-27T00:07:42.388Z,5
2023-02-27T00:08:42.494Z,5
2023-02-27T00:09:42.456Z,5
2023-02-27T00:10:42.389Z,4
2023-02-27T00:11:42.389Z,6
2023-02-27T00:12:42.380Z,6
2023-02-27T00:13:42.395Z,6
2023-02-27T00:14:42.431Z,5
2023-02-27T00:15:42.421Z,7
2023-02-27T00:16:42.388Z,6
2023-02-27T00:17:42.442Z,5
2023-02-27T00:18:42.399Z,6
2023-02-27T00:19:42.498Z,7
2023-02-27T00:20:42.377Z,6
2023-02-27T00:21:42.384Z,4
2023-02-27T00:22:42.381Z,5
2023-02-27T00:23:42.407Z,5
2023-02-27T00:24:42.411Z,4
2023-02-27T00:25:42.382Z,6
2023-02-27T00:26:42.371Z,6
2023-02-27T00:27:42.400Z,4
2023-02-27T00:28:42.392Z,6
2023-02-27T00:29:42.400Z,6
2023-02-27T00:30:42.427Z,5
2023-02-27T00:31:42.500Z,7
2023-02-27T00:32:42.410Z,5
2023-02-27T00:33:42.386Z,5
2023-02-27T00:34:42.392Z,4
2023-02-27T00:35:42.392Z,5
2023-02-27T00:36:42.393Z,5
2023-02-27T00:37:42.377Z,8
2023-02-27T00:38:42.371Z,5
2023-02-27T00:39:42.411Z,4
2023-02-27T00:40:42.388Z,4
2023-02-27T00:41:42.403Z,5
2023-02-27T00:42:42.382Z,5
2023-02-27T00:43:42.379Z,5
2023-02-27T00:44:42.394Z,6
2023-02-27T00:45:42.391Z,4
2023-02-27T00:46:42.458Z,4
2023-02-27T00:47:42.400Z,5
2023-02-27T00:48:42.404Z,5
2023-02-27T00:49:42.393Z,4
2023-02-27T00:50:42.364Z,4
2023-02-27T00:51:42.366Z,4
2023-02-27T00:52:42.502Z,3
2023-02-27T00:53:42.387Z,5
2023-02-27T00:54:42.379Z,5
2023-02-27T00:55:42.370Z,6
2023-02-27T00:56:42.417Z,4
2023-02-27T00:57:42.427Z,5
2023-02-27T00:58:42.431Z,4
2023-02-27T00:59:42.377Z,4
2023-02-27T01:00:42.442Z,5
2023-02-27T01:01:42.386Z,4
2023-02-27T01:02:42.485Z,4
2023-02-27T01:03:48.955Z,4
2023-02-27T01:04:42.371Z,4
2023-02-27T01:05:42.386Z,3
2023-02-27T01:06:42.376Z,3
2023-02-27T01:07:42.374Z,3
2023-02-27T01:08:42.380Z,4
2023-02-27T01:09:42.378Z,8
2023-02-27T01:10:42.370Z,4
2023-02-27T01:11:42.394Z,6
2023-02-27T01:12:42.386Z,4
2023-02-27T01:13:42.372Z,3
2023-02-27T01:14:42.384Z,4
2023-02-27T01:15:42.381Z,3
2023-02-27T01:16:42.471Z,5
2023-02-27T01:17:42.397Z,4
2023-02-27T01:19:42.374Z,3
2023-02-27T01:20:42.385Z,4
2023-02-27T01:21:42.441Z,4
2023-02-27T01:22:42.394Z,4
2023-02-27T01:23:42.401Z,3
2023-02-27T01:24:42.388Z,3
2023-02-27T01:25:42.400Z,2
2023-02-27T01:26:42.393Z,4
2023-02-27T01:27:42.430Z,5
2023-02-27T01:28:42.442Z,4
2023-02-27T01:29:42.406Z,3
2023-02-27T01:30:42.431Z,3
2023-02-27T01:31:42.509Z,4
2023-02-27T01:32:42.464Z,2
2023-02-27T01:33:42.381Z,3
2023-02-27T01:34:42.512Z,3
2023-02-27T01:36:42.371Z,4
2023-02-27T01:37:42.380Z,3
2023-02-27T01:38:42.383Z,3
2023-02-27T01:39:42.382Z,6
2023-02-27T01:40:42.397Z,3
2023-02-27T01:41:42.372Z,4
2023-02-27T01:42:42.403Z,4
2023-02-27T01:43:42.377Z,4
2023-02-27T01:44:42.384Z,3
2023-02-27T01:45:42.420Z,5
2023-02-27T01:46:42.396Z,3
2023-02-27T01:47:42.391Z,3
2023-02-27T01:48:42.400Z,4
2023-02-27T01:49:42.377Z,3
2023-02-27T01:50:42.400Z,3
2023-02-27T01:51:42.399Z,4
2023-02-27T01:52:42.653Z,4
2023-02-27T01:53:42.369Z,3
2023-02-27T01:54:42.375Z,3
2023-02-27T01:55:42.392Z,4
2023-02-27T01:56:42.382Z,3
2023-02-27T01:57:42.379Z,3
2023-02-27T01:58:42.375Z,3
2023-02-27T01:59:42.388Z,2
2023-02-27T02:00:42.393Z,4
2023-02-27T02:01:42.384Z,5
2023-02-27T02:02:42.380Z,4
2023-02-27T02:04:42.372Z,4
2023-02-27T02:05:42.414Z,4
2023-02-27T02:06:42.394Z,4
2023-02-27T02:07:42.354Z,3
2023-02-27T02:08:42.378Z,3
2023-02-27T02:09:42.363Z,4
2023-02-27T02:10:42.379Z,6
2023-02-27T02:11:42.372Z,5
2023-02-27T02:12:42.367Z,3
2023-02-27T02:13:42.372Z,3
2023-02-27T02:14:42.385Z,3
2023-02-27T02:15:42.386Z,3
2023-02-27T02:16:42.393Z,6
2023-02-27T02:17:42.381Z,4
2023-02-27T02:18:42.376Z,3
2023-02-27T02:19:42.365Z,4
2023-02-27T02:20:42.405Z,6
2023-02-27T02:21:42.353Z,3
2023-02-27T02:22:42.367Z,4
2023-02-27T02:23:42.386Z,4
2023-02-27T02:24:42.371Z,3
2023-02-27T02:25:42.392Z,3
2023-02-27T02:26:42.371Z,4
2023-02-27T02:27:42.391Z,4
2023-02-27T02:28:42.358Z,4
2023-02-27T02:29:42.399Z,4
2023-02-27T02:30:42.482Z,3
2023-02-27T02:31:42.562Z,4
2023-02-27T02:32:42.384Z,4
2023-02-27T02:33:42.376Z,3
2023-02-27T02:34:42.360Z,4
2023-02-27T02:35:42.385Z,3
2023-02-27T02:36:42.402Z,4
2023-02-27T02:37:42.379Z,3
2023-02-27T02:38:42.364Z,3
2023-02-27T02:39:42.362Z,3
2023-02-27T02:40:42.370Z,4
2023-02-27T02:41:42.370Z,6
2023-02-27T02:42:42.377Z,6
2023-02-27T02:43:42.366Z,4
2023-02-27T02:44:42.388Z,3
2023-02-27T02:45:42.362Z,4
2023-02-27T02:46:42.375Z,5
2023-02-27T02:47:42.443Z,6
2023-02-27T02:48:42.351Z,2
2023-02-27T02:49:42.342Z,2
2023-02-27T02:50:42.364Z,5
2023-02-27T02:51:42.375Z,3
2023-02-27T02:52:42.355Z,2
2023-02-27T02:53:42.349Z,3
2023-02-27T02:54:42.362Z,4
2023-02-27T02:55:42.364Z,3
2023-02-27T02:56:42.380Z,3
2023-02-27T02:57:42.355Z,4
2023-02-27T02:58:42.369Z,2
2023-02-27T02:59:42.370Z,3
2023-02-27T03:00:42.400Z,3
2023-02-27T03:01:42.424Z,3
2023-02-27T03:02:42.378Z,4
2023-02-27T03:03:42.377Z,2
2023-02-27T03:04:42.472Z,4
2023-02-27T03:05:42.358Z,4
2023-02-27T03:06:42.359Z,3
2023-02-27T03:07:42.547Z,5
2023-02-27T03:08:42.388Z,4
2023-02-27T03:09:42.352Z,3
2023-02-27T03:10:42.347Z,4
2023-02-27T03:11:42.369Z,5
2023-02-27T03:12:42.364Z,5
2023-02-27T03:13:42.361Z,2
2023-02-27T03:14:42.348Z,6
2023-02-27T03:15:42.400Z,4
2023-02-27T03:16:42.409Z,3
2023-02-27T03:17:42.397Z,4
2023-02-27T03:18:42.361Z,3
2023-02-27T03:19:42.370Z,4
2023-02-27T03:20:42.354Z,3
2023-02-27T03:21:42.404Z,3
2023-02-27T03:22:42.356Z,3
2023-02-27T03:23:42.338Z,4
2023-02-27T03:24:42.356Z,4
2023-02-27T03:25:42.353Z,4
2023-02-27T03:26:42.356Z,3
2023-02-27T03:27:42.352Z,4
2023-02-27T03:28:42.344Z,3
2023-02-27T03:29:42.339Z,4
2023-02-27T03:30:42.446Z,5
2023-02-27T03:31:42.469Z,3
2023-02-27T03:32:42.363Z,3
2023-02-27T03:33:42.339Z,3
2023-02-27T03:34:42.348Z,5
2023-02-27T03:35:42.351Z,3
2023-02-27T03:36:42.358Z,4
2023-02-27T03:37:42.346Z,3
2023-02-27T03:38:42.366Z,4
2023-02-27T03:39:42.334Z,3
2023-02-27T03:40:42.344Z,2
2023-02-27T03:41:42.359Z,3
2023-02-27T03:42:42.353Z,3
2023-02-27T03:43:42.334Z,3
2023-02-27T03:44:42.335Z,5
2023-02-27T03:45:42.333Z,2
2023-02-27T03:46:42.472Z,3
2023-02-27T03:47:42.403Z,3
2023-02-27T03:48:42.338Z,2
2023-02-27T03:49:42.341Z,3
2023-02-27T03:50:42.338Z,4
2023-02-27T03:51:42.360Z,3
2023-02-27T03:52:42.327Z,4
2023-02-27T03:53:42.325Z,3
2023-02-27T03:54:42.344Z,2
2023-02-27T03:55:42.358Z,3
2023-02-27T03:56:42.352Z,3
2023-02-27T03:57:42.341Z,4
2023-02-27T03:58:42.344Z,3
2023-02-27T03:59:42.341Z,2
2023-02-27T04:00:42.328Z,3
2023-02-27T04:01:42.406Z,3
2023-02-27T04:02:42.401Z,4
2023-02-27T04:03:42.356Z,4
2023-02-27T04:04:42.333Z,4
2023-02-27T04:05:42.341Z,5
2023-02-27T04:06:42.354Z,3
2023-02-27T04:07:42.338Z,4
2023-02-27T04:08:42.342Z,4
2023-02-27T04:09:42.493Z,4
2023-02-27T04:10:42.338Z,3
2023-02-27T04:11:42.367Z,3
2023-02-27T04:12:44.309Z,5
2023-02-27T04:13:42.324Z,4
2023-02-27T04:14:42.329Z,2
2023-02-27T04:15:42.330Z,3
2023-02-27T04:16:42.360Z,2
2023-02-27T04:17:42.355Z,3
2023-02-27T04:18:42.325Z,4
2023-02-27T04:19:42.327Z,4
2023-02-27T04:20:42.329Z,2
2023-02-27T04:21:42.355Z,4
2023-02-27T04:22:42.333Z,5
2023-02-27T04:23:42.334Z,5
2023-02-27T04:24:42.321Z,6
2023-02-27T04:25:42.336Z,4
2023-02-27T04:26:42.357Z,4
2023-02-27T04:27:42.317Z,4
2023-02-27T04:28:42.336Z,5
2023-02-27T04:29:42.339Z,5
2023-02-27T04:30:42.339Z,5
2023-02-27T04:31:42.460Z,8
2023-02-27T04:32:42.491Z,2
2023-02-27T04:33:42.355Z,7
2023-02-27T04:34:42.374Z,3
2023-02-27T04:35:42.339Z,3
2023-02-27T04:36:42.349Z,5
2023-02-27T04:37:42.330Z,5
2023-02-27T04:38:42.346Z,3
2023-02-27T04:39:42.368Z,4
2023-02-27T04:40:42.357Z,4
2023-02-27T04:41:42.345Z,4
2023-02-27T04:42:42.346Z,3
2023-02-27T04:43:42.336Z,4
2023-02-27T04:44:42.326Z,4
2023-02-27T04:45:42.416Z,4
2023-02-27T04:46:42.339Z,5
2023-02-27T04:47:42.360Z,4
2023-02-27T04:48:42.334Z,4
2023-02-27T04:49:42.331Z,4
2023-02-27T04:50:42.334Z,5
2023-02-27T04:51:42.352Z,4
2023-02-27T04:52:42.339Z,5
2023-02-27T04:53:42.342Z,5
2023-02-27T04:54:42.336Z,4
2023-02-27T04:55:42.343Z,4
2023-02-27T04:56:42.384Z,3
2023-02-27T04:57:42.334Z,5
2023-02-27T04:58:42.327Z,6
2023-02-27T04:59:42.331Z,4
2023-02-27T05:00:42.456Z,5
2023-02-27T05:01:42.359Z,5
2023-02-27T05:02:42.390Z,6
2023-02-27T05:03:42.330Z,4
2023-02-27T05:04:42.337Z,4
2023-02-27T05:05:42.336Z,5
2023-02-27T05:06:42.387Z,5
2023-02-27T05:07:42.326Z,6
2023-02-27T05:08:42.338Z,6
2023-02-27T05:09:42.338Z,5
2023-02-27T05:10:42.331Z,4
2023-02-27T05:11:42.349Z,4
2023-02-27T05:12:42.332Z,5
2023-02-27T05:13:42.333Z,3
2023-02-27T05:14:42.340Z,4
2023-02-27T05:15:42.341Z,5
2023-02-27T05:16:42.477Z,4
2023-02-27T05:17:42.380Z,4
2023-02-27T05:18:42.333Z,4
2023-02-27T05:19:42.355Z,4
2023-02-27T05:20:42.322Z,4
2023-02-27T05:21:42.329Z,3
2023-02-27T05:22:42.315Z,5
2023-02-27T05:23:42.433Z,5
2023-02-27T05:24:42.338Z,3
2023-02-27T05:25:42.318Z,3
2023-02-27T05:26:42.356Z,4
2023-02-27T05:27:42.346Z,3
2023-02-27T05:28:44.693Z,3
2023-02-27T05:29:42.334Z,4
2023-02-27T05:30:42.331Z,5
2023-02-27T05:31:42.374Z,3
2023-02-27T05:32:42.342Z,3
2023-02-27T05:33:42.324Z,4
2023-02-27T05:34:42.337Z,3
2023-02-27T05:35:42.348Z,5
2023-02-27T05:36:42.353Z,4
2023-02-27T05:37:42.320Z,4
2023-02-27T05:38:42.327Z,6
2023-02-27T05:39:42.397Z,5
2023-02-27T05:40:42.316Z,3
2023-02-27T05:41:42.362Z,4
2023-02-27T05:42:42.324Z,5
2023-02-27T05:43:42.344Z,6
2023-02-27T05:44:42.344Z,5
2023-02-27T05:45:42.371Z,4
2023-02-27T05:46:42.399Z,3
2023-02-27T05:47:42.340Z,5
2023-02-27T05:48:42.315Z,3
2023-02-27T05:49:42.317Z,5
2023-02-27T05:50:42.322Z,4
2023-02-27T05:51:42.336Z,5
2023-02-27T05:52:42.308Z,3
2023-02-27T05:53:42.317Z,3
2023-02-27T05:54:42.329Z,3
2023-02-27T05:55:42.304Z,4
2023-02-27T05:56:42.338Z,5
2023-02-27T05:57:42.320Z,3
2023-02-27T05:58:42.355Z,5
2023-02-27T05:59:42.330Z,3
2023-02-27T06:00:42.316Z,3
2023-02-27T06:02:42.342Z,3
2023-02-27T06:03:42.378Z,3
2023-02-27T06:04:42.325Z,5
2023-02-27T06:05:42.316Z,4
2023-02-27T06:06:42.322Z,4
2023-02-27T06:07:42.322Z,3
2023-02-27T06:08:42.313Z,5
2023-02-27T06:09:42.319Z,8
2023-02-27T06:10:42.323Z,6
2023-02-27T06:11:42.326Z,14
2023-02-27T06:12:42.324Z,9
2023-02-27T06:13:42.416Z,8
2023-02-27T06:14:42.308Z,10
2023-02-27T06:15:42.309Z,9
2023-02-27T06:16:42.413Z,6
2023-02-27T06:17:42.342Z,7
2023-02-27T06:18:42.351Z,7
2023-02-27T06:19:42.321Z,6
2023-02-27T06:20:42.310Z,6
2023-02-27T06:21:42.313Z,6
2023-02-27T06:22:42.317Z,6
2023-02-27T06:23:42.338Z,8
2023-02-27T06:24:42.304Z,6
2023-02-27T06:25:42.372Z,9
2023-02-27T06:26:42.315Z,5
2023-02-27T06:27:42.309Z,7
2023-02-27T06:28:42.313Z,6
2023-02-27T06:29:42.336Z,7
2023-02-27T06:30:43.259Z,6
2023-02-27T06:31:42.316Z,7
2023-02-27T06:32:42.309Z,9
2023-02-27T06:33:42.303Z,6
2023-02-27T06:34:42.323Z,8
2023-02-27T06:35:42.375Z,8
2023-02-27T06:36:42.316Z,7
2023-02-27T06:37:42.320Z,6
2023-02-27T06:38:42.332Z,6
2023-02-27T06:39:42.314Z,8
2023-02-27T06:40:42.295Z,9
2023-02-27T06:41:42.319Z,8
2023-02-27T06:42:42.304Z,14
2023-02-27T06:43:42.305Z,15
2023-02-27T06:44:42.299Z,15
2023-02-27T06:45:42.333Z,14
2023-02-27T06:46:42.469Z,17
2023-02-27T06:47:42.320Z,11
2023-02-27T06:48:42.305Z,12
2023-02-27T06:49:42.304Z,10
2023-02-27T06:50:42.318Z,9
2023-02-27T06:51:44.166Z,8
2023-02-27T06:52:42.308Z,10
2023-02-27T06:53:42.298Z,8
2023-02-27T06:54:42.302Z,9
2023-02-27T06:55:42.299Z,5
2023-02-27T06:56:42.302Z,7
2023-02-27T06:57:42.300Z,5
2023-02-27T06:58:42.308Z,8
2023-02-27T06:59:42.298Z,8
2023-02-27T07:00:42.343Z,4
2023-02-27T07:01:42.379Z,6
2023-02-27T07:02:42.332Z,5
2023-02-27T07:03:42.315Z,6
2023-02-27T07:04:42.343Z,4
2023-02-27T07:05:42.287Z,5
2023-02-27T07:07:34.108Z,4
2023-02-27T07:07:42.292Z,5
2023-02-27T07:08:54.043Z,6
2023-02-27T07:09:42.279Z,4
2023-02-27T07:10:42.305Z,6
2023-02-27T07:11:42.290Z,5
2023-02-27T07:12:42.311Z,4
2023-02-27T07:13:42.319Z,5
2023-02-27T07:14:42.292Z,4
2023-02-27T07:15:42.327Z,5
2023-02-27T07:16:42.298Z,5
2023-02-27T07:17:42.341Z,3
2023-02-27T07:18:42.333Z,4
2023-02-27T07:19:42.300Z,5
2023-02-27T07:20:42.296Z,4
2023-02-27T07:21:42.314Z,4
2023-02-27T07:22:42.295Z,3
2023-02-27T07:23:42.314Z,4
2023-02-27T07:24:42.289Z,3
2023-02-27T07:25:42.283Z,4
2023-02-27T07:26:42.307Z,5
2023-02-27T07:27:42.423Z,5
2023-02-27T07:28:42.362Z,5
2023-02-27T07:29:42.301Z,4
2023-02-27T07:30:42.316Z,3
2023-02-27T07:31:42.328Z,5
2023-02-27T07:32:42.303Z,3
2023-02-27T07:33:42.318Z,4
2023-02-27T07:34:42.291Z,4
2023-02-27T07:35:42.351Z,5
2023-02-27T07:36:42.286Z,5
2023-02-27T07:37:42.279Z,5
2023-02-27T07:38:42.299Z,4
2023-02-27T07:39:42.294Z,4
2023-02-27T07:40:42.311Z,4
2023-02-27T07:41:42.300Z,4
2023-02-27T07:42:42.296Z,3
2023-02-27T07:43:42.310Z,4
2023-02-27T07:44:42.308Z,3
2023-02-27T07:45:42.297Z,6
2023-02-27T07:46:42.309Z,7
2023-02-27T07:47:42.305Z,6
2023-02-27T07:48:42.322Z,6
2023-02-27T07:49:42.298Z,5
2023-02-27T07:50:42.280Z,4
2023-02-27T07:51:42.367Z,5
2023-02-27T07:52:42.299Z,7
2023-02-27T07:53:42.306Z,4
2023-02-27T07:54:42.305Z,6
2023-02-27T07:55:42.336Z,5
2023-02-27T07:56:42.340Z,4
2023-02-27T07:57:42.311Z,5
2023-02-27T07:58:42.415Z,5
2023-02-27T07:59:42.281Z,6
2023-02-27T08:00:42.288Z,6
2023-02-27T08:01:42.294Z,4
2023-02-27T08:02:42.444Z,6
2023-02-27T08:03:42.316Z,6
2023-02-27T08:04:42.418Z,3
2023-02-27T08:05:42.296Z,4
2023-02-27T08:06:42.317Z,5
2023-02-27T08:07:42.288Z,5
2023-02-27T08:08:42.309Z,4
2023-02-27T08:09:42.325Z,5
2023-02-27T08:10:42.299Z,4
2023-02-27T08:11:42.301Z,4
2023-02-27T08:12:42.275Z,4
2023-02-27T08:14:09.982Z,4
2023-02-27T08:14:42.301Z,5
2023-02-27T08:15:42.308Z,5
2023-02-27T08:16:42.281Z,6
2023-02-27T08:17:42.304Z,5
2023-02-27T08:18:42.307Z,6
2023-02-27T08:19:42.309Z,4
2023-02-27T08:20:42.276Z,5
2023-02-27T08:21:42.288Z,5
2023-02-27T08:22:42.288Z,5
2023-02-27T08:23:42.713Z,6
2023-02-27T08:24:42.876Z,6
2023-02-27T08:25:42.277Z,8
2023-02-27T08:26:42.293Z,8
2023-02-27T08:27:42.293Z,7
2023-02-27T08:28:42.328Z,8
2023-02-27T08:29:42.282Z,8
2023-02-27T08:30:42.285Z,9
2023-02-27T08:31:42.327Z,7
2023-02-27T08:32:42.301Z,6
2023-02-27T08:33:42.361Z,5
2023-02-27T08:34:42.313Z,5
2023-02-27T08:35:42.349Z,3
2023-02-27T08:36:42.285Z,7
2023-02-27T08:37:42.284Z,5
2023-02-27T08:38:42.329Z,5
2023-02-27T08:39:42.275Z,4
2023-02-27T08:40:42.295Z,5
2023-02-27T08:41:42.312Z,4
2023-02-27T08:42:42.308Z,4
2023-02-27T08:43:42.312Z,4
2023-02-27T08:44:42.283Z,5
2023-02-27T08:45:42.340Z,5
2023-02-27T08:46:42.276Z,8
2023-02-27T08:47:42.306Z,5
2023-02-27T08:48:42.288Z,4
2023-02-27T08:49:42.271Z,4
2023-02-27T08:50:42.278Z,5
2023-02-27T08:51:42.324Z,5
2023-02-27T08:52:42.278Z,3
2023-02-27T08:53:42.284Z,4
2023-02-27T08:54:42.292Z,5
2023-02-27T08:55:42.298Z,4
2023-02-27T08:56:42.289Z,4
2023-02-27T08:57:42.478Z,6
2023-02-27T08:58:42.275Z,3
2023-02-27T08:59:42.364Z,4
2023-02-27T09:00:42.292Z,3
2023-02-27T09:01:42.301Z,4
2023-02-27T09:02:42.346Z,4
2023-02-27T09:03:42.287Z,3
2023-02-27T09:04:42.324Z,6
2023-02-27T09:05:42.331Z,3
2023-02-27T09:06:42.272Z,3
2023-02-27T09:07:42.487Z,4
2023-02-27T09:08:42.275Z,3
2023-02-27T09:09:42.297Z,5
2023-02-27T09:10:42.312Z,4
2023-02-27T09:11:42.302Z,3
2023-02-27T09:12:42.265Z,3
2023-02-27T09:13:42.295Z,3
2023-02-27T09:14:42.272Z,5
2023-02-27T09:15:42.273Z,3
2023-02-27T09:16:42.321Z,3
2023-02-27T09:17:42.317Z,2
2023-02-27T09:18:42.321Z,4
2023-02-27T09:19:42.283Z,2
2023-02-27T09:20:42.304Z,3
2023-02-27T09:21:42.281Z,2
2023-02-27T09:22:42.271Z,3
2023-02-27T09:23:42.292Z,3
2023-02-27T09:24:48.888Z,3
2023-02-27T09:25:42.314Z,3
2023-02-27T09:26:46.303Z,3
2023-02-27T09:27:42.275Z,3
2023-02-27T09:28:42.274Z,3
2023-02-27T09:29:42.273Z,3
2023-02-27T09:30:42.329Z,2
2023-02-27T09:31:42.349Z,2
2023-02-27T09:32:42.323Z,3
2023-02-27T09:33:42.286Z,2
2023-02-27T09:34:42.281Z,2
2023-02-27T09:35:42.396Z,2
2023-02-27T09:36:42.300Z,1
2023-02-27T09:37:42.327Z,2
2023-02-27T09:38:42.262Z,2
2023-02-27T09:39:43.989Z,2
2023-02-27T09:40:42.282Z,2
2023-02-27T09:41:42.283Z,2
2023-02-27T09:42:42.334Z,2
2023-02-27T09:43:42.275Z,1
2023-02-27T09:44:47.277Z,3
2023-02-27T09:45:42.328Z,3
2023-02-27T09:46:42.289Z,2
2023-02-27T09:47:42.292Z,2
2023-02-27T09:48:42.342Z,2
2023-02-27T09:49:42.264Z,2
2023-02-27T09:50:42.291Z,2
2023-02-27T09:51:42.280Z,1
2023-02-27T09:52:42.275Z,2
2023-02-27T09:53:42.287Z,2
2023-02-27T09:54:44.565Z,2
2023-02-27T09:55:42.290Z,1
2023-02-27T09:56:42.289Z,3
2023-02-27T09:57:42.306Z,2
2023-02-27T09:58:42.280Z,2
2023-02-27T09:59:42.282Z,1
2023-02-27T10:00:42.315Z,2
2023-02-27T10:01:42.299Z,2
2023-02-27T10:02:42.358Z,2
2023-02-27T10:03:42.285Z,3
2023-02-27T10:04:42.290Z,1
2023-02-27T10:05:42.322Z,1
2023-02-27T10:07:42.260Z,2
2023-02-27T10:08:42.263Z,2
2023-02-27T10:09:42.278Z,2
2023-02-27T10:10:42.297Z,2
2023-02-27T10:11:42.283Z,2
2023-02-27T10:12:42.284Z,2
2023-02-27T10:13:42.278Z,2
2023-02-27T10:14:42.271Z,3
2023-02-27T10:15:42.300Z,2
2023-02-27T10:16:42.496Z,2
2023-02-27T10:17:42.267Z,1
2023-02-27T10:18:42.303Z,2
2023-02-27T10:19:42.271Z,2
2023-02-27T10:20:42.318Z,2
2023-02-27T10:21:42.287Z,2
2023-02-27T10:23:42.267Z,3
2023-02-27T10:25:42.297Z,7
2023-02-27T10:26:42.270Z,3
2023-02-27T10:27:42.264Z,1
2023-02-27T10:28:42.260Z,1
2023-02-27T10:29:42.286Z,1
2023-02-27T10:30:42.359Z,1
2023-02-27T10:31:42.272Z,1
2023-02-27T10:32:42.319Z,1
2023-02-27T10:33:42.311Z,1
2023-02-27T10:34:42.332Z,1
2023-02-27T10:35:42.499Z,2
2023-02-27T10:36:42.475Z,4
2023-02-27T10:37:42.379Z,2
2023-02-27T10:38:42.524Z,2
2023-02-27T10:39:42.540Z,2
2023-02-27T10:40:42.297Z,1
2023-02-27T10:41:42.274Z,3
2023-02-27T10:42:42.288Z,3
2023-02-27T10:43:42.275Z,2
2023-02-27T10:44:42.272Z,1
2023-02-27T10:45:42.283Z,2
2023-02-27T10:46:42.405Z,3
2023-02-27T10:47:42.338Z,2
2023-02-27T10:48:42.301Z,1
2023-02-27T10:49:42.281Z,2
2023-02-27T10:50:42.292Z,2
2023-02-27T10:51:42.278Z,2
2023-02-27T10:52:43.220Z,2
2023-02-27T10:53:42.276Z,1
2023-02-27T10:54:42.273Z,2
2023-02-27T10:55:42.301Z,1
2023-02-27T10:56:42.312Z,1
2023-02-27T10:57:42.287Z,3
2023-02-27T10:58:42.264Z,1
2023-02-27T10:59:42.275Z,2
2023-02-27T11:00:42.328Z,1
2023-02-27T11:01:42.405Z,2
2023-02-27T11:02:42.264Z,1
2023-02-27T11:03:42.305Z,2
2023-02-27T11:04:42.378Z,1
2023-02-27T11:05:42.289Z,3
2023-02-27T11:06:42.289Z,2
2023-02-27T11:07:42.272Z,1
2023-02-27T11:08:42.280Z,1
2023-02-27T11:09:42.587Z,1
2023-02-27T11:10:42.270Z,1
2023-02-27T11:11:42.262Z,1
2023-02-27T11:12:42.272Z,1
2023-02-27T11:13:42.276Z,2
2023-02-27T11:14:42.262Z,1
2023-02-27T11:15:42.303Z,1
2023-02-27T11:16:42.256Z,1
2023-02-27T11:17:42.269Z,1
2023-02-27T11:18:42.280Z,1
2023-02-27T11:19:42.280Z,1
2023-02-27T11:20:42.308Z,1
2023-02-27T11:21:42.267Z,1
2023-02-27T11:22:42.277Z,1
2023-02-27T11:23:42.249Z,1
2023-02-27T11:24:42.262Z,1
2023-02-27T11:25:42.300Z,3
2023-02-27T11:26:42.276Z,1
2023-02-27T11:27:42.257Z,1
2023-02-27T11:28:42.250Z,1
2023-02-27T11:29:42.264Z,1
2023-02-27T11:30:42.310Z,2
2023-02-27T11:31:42.278Z,2
2023-02-27T11:32:42.270Z,2
2023-02-27T11:33:42.286Z,1
2023-02-27T11:34:42.260Z,3
2023-02-27T11:35:42.349Z,2
2023-02-27T11:36:42.274Z,2
2023-02-27T11:37:42.267Z,1
2023-02-27T11:38:42.256Z,1
2023-02-27T11:39:42.270Z,1
2023-02-27T11:40:42.313Z,3
2023-02-27T11:41:42.272Z,2
2023-02-27T11:42:42.272Z,1
2023-02-27T11:43:42.265Z,1
2023-02-27T11:44:50.529Z,1
2023-02-27T11:46:05.859Z,1
2023-02-27T11:46:47.619Z,1
2023-02-27T11:47:42.277Z,1
2023-02-27T11:48:42.303Z,2
2023-02-27T11:49:42.271Z,2
2023-02-27T11:50:42.310Z,1
2023-02-27T11:51:42.258Z,1
2023-02-27T11:52:42.274Z,1
2023-02-27T11:53:42.265Z,1
2023-02-27T11:54:42.273Z,3
2023-02-27T11:55:42.274Z,2
2023-02-27T11:56:42.257Z,1
2023-02-27T11:57:42.262Z,1
2023-02-27T11:58:42.292Z,1
2023-02-27T11:59:42.272Z,1
2023-02-27T12:00:42.285Z,1
2023-02-27T12:01:42.258Z,1
2023-02-27T12:02:42.335Z,1
2023-02-27T12:03:42.344Z,1
2023-02-27T12:04:42.333Z,2
2023-02-27T12:05:42.277Z,1
2023-02-27T12:06:42.264Z,2
2023-02-27T12:07:42.270Z,2
2023-02-27T12:08:42.275Z,1
2023-02-27T12:09:42.265Z,1
2023-02-27T12:10:42.279Z,2
2023-02-27T12:11:42.333Z,2
2023-02-27T12:12:42.265Z,1
2023-02-27T12:13:42.261Z,1
2023-02-27T12:14:42.350Z,1
2023-02-27T12:15:42.287Z,2
2023-02-27T12:16:42.434Z,1
2023-02-27T12:17:42.263Z,2
2023-02-27T12:18:42.278Z,2
2023-02-27T12:19:42.255Z,1
2023-02-27T12:20:42.285Z,1
2023-02-27T12:21:42.277Z,1
2023-02-27T12:22:42.261Z,1
2023-02-27T12:23:42.274Z,3
2023-02-27T12:24:42.271Z,2
2023-02-27T12:25:42.277Z,2
2023-02-27T12:26:42.272Z,2
2023-02-27T12:27:43.787Z,1
2023-02-27T12:28:42.262Z,1
2023-02-27T12:29:42.254Z,1
2023-02-27T12:30:42.306Z,2
2023-02-27T12:31:42.348Z,2
2023-02-27T12:32:42.336Z,2
2023-02-27T12:33:42.265Z,2
2023-02-27T12:34:42.266Z,1
2023-02-27T12:35:42.282Z,2
2023-02-27T12:36:42.265Z,1
2023-02-27T12:37:42.266Z,1
2023-02-27T12:38:42.255Z,1
2023-02-27T12:39:42.250Z,2
2023-02-27T12:40:42.258Z,1
2023-02-27T12:41:42.254Z,2
2023-02-27T12:42:42.293Z,2
2023-02-27T12:43:42.260Z,1
2023-02-27T12:44:42.261Z,2
2023-02-27T12:45:42.433Z,2
2023-02-27T12:46:42.328Z,1
2023-02-27T12:47:42.312Z,1
2023-02-27T12:48:42.271Z,1
2023-02-27T12:49:42.254Z,1
2023-02-27T12:50:42.312Z,1
2023-02-27T12:51:42.253Z,1
2023-02-27T12:52:42.245Z,1
2023-02-27T12:53:42.245Z,1
2023-02-27T12:54:42.277Z,1
2023-02-27T12:55:42.340Z,1
2023-02-27T12:56:42.329Z,3
2023-02-27T12:57:42.261Z,1
2023-02-27T12:58:42.268Z,1
2023-02-27T12:59:42.243Z,1
2023-02-27T13:00:42.378Z,2
2023-02-27T13:01:42.269Z,1
2023-02-27T13:02:42.264Z,1
2023-02-27T13:03:42.278Z,4
2023-02-27T13:04:42.243Z,1
2023-02-27T13:05:42.270Z,1
2023-02-27T13:06:42.276Z,1
2023-02-27T13:07:42.276Z,1
2023-02-27T13:08:42.259Z,1
2023-02-27T13:09:42.266Z,1
2023-02-27T13:10:42.269Z,1
2023-02-27T13:11:42.271Z,1
2023-02-27T13:12:42.271Z,1
2023-02-27T13:13:42.294Z,1
2023-02-27T13:14:42.254Z,3
2023-02-27T13:15:42.288Z,2
2023-02-27T13:16:42.379Z,1
2023-02-27T13:17:42.247Z,1
2023-02-27T13:18:42.260Z,1
2023-02-27T13:19:42.265Z,2
2023-02-27T13:20:42.284Z,1
2023-02-27T13:21:42.260Z,2
2023-02-27T13:22:42.252Z,1
2023-02-27T13:23:42.267Z,3
2023-02-27T13:24:42.257Z,2
2023-02-27T13:25:42.387Z,1
2023-02-27T13:26:42.368Z,1
2023-02-27T13:27:42.380Z,1
2023-02-27T13:28:42.463Z,2
2023-02-27T13:29:42.482Z,1
2023-02-27T13:30:42.443Z,2
2023-02-27T13:31:42.572Z,1
2023-02-27T13:32:44.507Z,1
2023-02-27T13:33:42.680Z,1
2023-02-27T13:34:42.358Z,2
2023-02-27T13:35:42.307Z,1
2023-02-27T13:36:42.269Z,1
2023-02-27T13:37:42.249Z,1
2023-02-27T13:38:42.259Z,2
2023-02-27T13:39:42.311Z,1
2023-02-27T13:40:42.278Z,2
2023-02-27T13:41:42.269Z,1
2023-02-27T13:42:42.274Z,1
2023-02-27T13:43:51.886Z,2
2023-02-27T13:44:42.276Z,1
2023-02-27T13:45:42.349Z,1
2023-02-27T13:46:42.372Z,1
2023-02-27T13:47:42.256Z,1
2023-02-27T13:48:42.264Z,1
2023-02-27T13:49:42.275Z,2
2023-02-27T13:50:42.261Z,2
2023-02-27T13:51:42.262Z,1
2023-02-27T13:52:42.263Z,2
2023-02-27T13:53:42.251Z,1
2023-02-27T13:54:42.257Z,1
2023-02-27T13:55:42.285Z,1
2023-02-27T13:56:42.253Z,2
2023-02-27T13:57:42.267Z,1
2023-02-27T13:58:42.247Z,1
2023-02-27T13:59:42.267Z,1
2023-02-27T14:00:42.345Z,2
2023-02-27T14:01:42.340Z,2
2023-02-27T14:02:57.940Z,3
2023-02-27T14:03:42.253Z,2
2023-02-27T14:04:42.248Z,1
2023-02-27T14:05:42.275Z,2
2023-02-27T14:06:42.244Z,1
2023-02-27T14:07:42.259Z,1
2023-02-27T14:08:42.266Z,1
2023-02-27T14:09:42.316Z,1
2023-02-27T14:10:42.267Z,2
2023-02-27T14:11:42.267Z,1
2023-02-27T14:12:45.759Z,1
2023-02-27T14:13:42.254Z,1
2023-02-27T14:14:42.276Z,1
2023-02-27T14:15:42.386Z,1
2023-02-27T14:16:42.257Z,2
2023-02-27T14:17:42.257Z,2
2023-02-27T14:18:42.263Z,1
2023-02-27T14:19:42.266Z,2
2023-02-27T14:20:42.263Z,1
2023-02-27T14:21:42.248Z,1
2023-02-27T14:22:42.250Z,5
2023-02-27T14:23:42.788Z,2
2023-02-27T14:25:01.035Z,1
2023-02-27T14:25:42.265Z,2
2023-02-27T14:26:42.316Z,1
2023-02-27T14:27:42.245Z,1
2023-02-27T14:28:42.272Z,1
2023-02-27T14:29:42.244Z,1
2023-02-27T14:30:42.248Z,5
2023-02-27T14:31:42.261Z,1
2023-02-27T14:32:42.249Z,1
2023-02-27T14:33:42.416Z,2
2023-02-27T14:34:42.243Z,2
2023-02-27T14:35:42.304Z,2
2023-02-27T14:36:42.268Z,3
2023-02-27T14:37:42.233Z,1
2023-02-27T14:38:42.272Z,2
2023-02-27T14:39:42.263Z,2
2023-02-27T14:40:42.257Z,1
2023-02-27T14:41:42.261Z,4
2023-02-27T14:42:42.296Z,1
2023-02-27T14:43:42.234Z,1
2023-02-27T14:44:42.460Z,2
2023-02-27T14:45:42.287Z,4
2023-02-27T14:46:42.335Z,2
2023-02-27T14:47:42.241Z,1
2023-02-27T14:48:42.236Z,2
2023-02-27T14:49:42.233Z,1
2023-02-27T14:50:42.258Z,2
2023-02-27T14:51:42.278Z,2
2023-02-27T14:52:42.244Z,1
2023-02-27T14:53:42.249Z,1